メインページ
METAR-TAF:

METAR-TAF

空港 :

カーブル, アフガニスタン

カーブル国際空港

緯度: 34-38N, 経度: 069-12E, 海抜: 1789m

現時点の気象観測

当レポートは33分前の12:30(UTC)に作成
北西の風 7kt
気温 9°C
湿度 40%
気圧 1023 hPa
視程: 3000m
高度5500ftの雲は散在している
高度7500ftの千切れ雲あり
煙霧

METAR: OAKB 241230Z 32007KT 6000 3000S HZ SCT055 BKN075 09/M04 Q1023 RMK A3023 WHT

時間: 17:33 (13:03 UTC)

予報

当レポートは1時間58分前の11:05(UTC)に作成
予報は24日の 12時(UTC)から 25日の 12時(UTC)まで有効
の風 12kt
視程: 5000m
高度6000ftの雲は散在している
高度8000ftの千切れ雲あり
煙霧
24日の 14時(UTC)から 24日の 16時(UTC)まで徐々に
変向風 2kt
視程: 2500m
高度10000ftの雲はほとんどない
煙霧, 煙
確率 40%
24日の 19時(UTC)から 25日の 03時(UTC)まで
視程: 1000m
靄, 煙
25日の 07時(UTC)から 25日の 09時(UTC)まで徐々に
北/北西の風 12kt
視程: 7000m
高度4000ftの雲は散在している
高度7000ftの千切れ雲あり
弱いにわか雨

TAF: OAKB 241105Z 2412/2512 35012KT 5000 HZ SCT060 BKN080 BECMG 2414/2416 VRB02KT 2500 HZ FU FEW100 PROB40 2419/2503 1000 BR FU BECMG 2507/2509 34012KT 7000 -SHRA SCT040 BKN070

4,000以上の空港の気象観測と天気予報(METAR報とTAF報)

利用可能な観測所は地図上に黄色い丸と赤い丸で示す。

丸の上にカーソルを重ねると観測所名を参照できる。

次にクリックすると気象観測と天気予報を参照できる。

マップの切り替え:黒色「×」印の緑ボタンをクリックして拡大、「-」印の緑ボタンをクリックして縮小、緑色の三角印をクリックして隣りの地図に切り替え


METAR-TAF: